Time;durP1;ratioP1;P1;durP2;ratioP2;P2;SDS_P1;SDS_P2;PMS_P1;PMS_P2;Temp;Humidity;BMP_temperature;BMP_pressure;BME280_temperature;BME280_humidity;BME280_pressure;Samples;Min_cycle;Max_cycle;Signal;HPM_P1;HPM_P2
2022/05/21 00:01:04;;;;;;;5.90;4.77;;;;;;;17.19;100.00;98539.88;5106758;28;20565;-72
2022/05/21 00:03:31;;;;;;;6.73;4.73;;;;;;;17.11;100.00;98537.88;5104947;28;20581;-72
2022/05/21 00:05:57;;;;;;;5.40;4.37;;;;;;;17.14;100.00;98534.09;5107267;28;20241;-72
2022/05/21 00:08:25;;;;;;;5.27;4.67;;;;;;;17.14;100.00;98545.59;5106916;28;20214;-72
2022/05/21 00:10:52;;;;;;;5.40;4.80;;;;;;;17.10;100.00;98549.56;5106823;28;20214;-72
2022/05/21 00:13:19;;;;;;;5.50;3.77;;;;;;;17.02;100.00;98560.03;5104767;28;20579;-72
2022/05/21 00:15:46;;;;;;;5.13;3.73;;;;;;;16.99;100.00;98555.00;5106526;28;20226;-72
2022/05/21 00:18:13;;;;;;;4.93;3.60;;;;;;;16.93;100.00;98560.88;5108129;28;20214;-72
2022/05/21 00:20:48;;;;;;;3.97;3.53;;;;;;;16.89;100.00;98564.78;5107221;28;20582;-72
2022/05/21 00:23:17;;;;;;;4.83;3.67;;;;;;;16.83;100.00;98561.81;5104703;28;20210;-72
2022/05/21 00:25:47;;;;;;;3.70;3.30;;;;;;;16.79;100.00;98563.91;5107848;28;20229;-72
2022/05/21 00:28:14;;;;;;;4.73;3.50;;;;;;;16.69;100.00;98570.16;5106404;28;20504;-72
2022/05/21 00:30:41;;;;;;;4.37;3.53;;;;;;;16.68;100.00;98572.00;5104386;28;20283;-73
2022/05/21 00:33:08;;;;;;;4.03;3.63;;;;;;;16.62;100.00;98561.88;5111246;28;20213;-72
2022/05/21 00:35:34;;;;;;;4.13;3.73;;;;;;;16.61;100.00;98562.84;5112608;28;20221;-72
2022/05/21 00:38:01;;;;;;;5.00;4.00;;;;;;;16.59;100.00;98561.28;5111490;28;20218;-72
2022/05/21 00:40:29;;;;;;;4.93;3.87;;;;;;;16.59;100.00;98567.44;5111336;28;20268;-73
2022/05/21 00:42:57;;;;;;;6.10;4.40;;;;;;;16.58;100.00;98571.09;5108475;28;20218;-73
2022/05/21 00:45:24;;;;;;;4.80;4.13;;;;;;;16.52;100.00;98563.63;5107406;28;20241;-73
2022/05/21 00:47:51;;;;;;;6.50;4.53;;;;;;;16.51;100.00;98577.13;5107932;28;20274;-73
2022/05/21 00:50:21;;;;;;;5.07;4.33;;;;;;;16.48;100.00;98572.91;5105472;28;20215;-73
2022/05/21 00:52:50;;;;;;;6.10;5.20;;;;;;;16.44;100.00;98586.59;5104142;28;20215;-73
2022/05/21 00:55:23;;;;;;;4.77;4.33;;;;;;;16.40;100.00;98588.69;5107592;28;20217;-73
2022/05/21 00:59:47;;;;;;;4.67;4.27;;;;;;;16.37;100.00;98599.59;5107652;28;20214;-73
2022/05/21 01:00:41;;;;;;;5.63;5.13;;;;;;;16.32;100.00;98601.81;5101099;28;20289;-73
2022/05/21 01:03:10;;;;;;;5.17;4.60;;;;;;;16.36;100.00;98605.06;5107477;28;20211;-73
2022/05/21 01:05:38;;;;;;;5.00;4.50;;;;;;;16.33;100.00;98611.50;5107329;28;20213;-73
2022/05/21 01:08:05;;;;;;;7.33;5.20;;;;;;;16.29;100.00;98606.56;5104127;28;20211;-73
2022/05/21 01:10:37;;;;;;;5.30;4.83;;;;;;;16.23;100.00;98618.63;5103382;28;20672;-73
2022/05/21 01:13:07;;;;;;;5.10;4.60;;;;;;;16.21;100.00;98615.22;5101829;28;20229;-73
2022/05/21 01:15:38;;;;;;;5.50;4.43;;;;;;;16.24;100.00;98614.09;5107411;28;20263;-72
2022/05/21 01:18:07;;;;;;;4.73;4.30;;;;;;;16.25;100.00;98605.97;5105575;28;20207;-74
2022/05/21 01:20:39;;;;;;;4.10;3.80;;;;;;;16.31;100.00;98610.78;5112051;28;20212;-72
2022/05/21 01:23:08;;;;;;;4.50;4.10;;;;;;;16.35;100.00;98612.22;5111677;28;20210;-72
2022/05/21 01:25:38;;;;;;;3.90;3.60;;;;;;;16.36;100.00;98608.59;5104478;28;20221;-72
2022/05/21 01:28:06;;;;;;;5.20;4.03;;;;;;;16.23;100.00;98618.63;5104074;28;20578;-72
2022/05/21 01:30:37;;;;;;;4.17;3.73;;;;;;;16.21;100.00;98612.53;5099582;28;20211;-73
2022/05/21 01:33:05;;;;;;;4.33;3.70;;;;;;;16.16;100.00;98617.41;5106671;28;20217;-72
2022/05/21 01:35:32;;;;;;;4.70;3.80;;;;;;;16.08;100.00;98619.88;5104263;28;20237;-72
2022/05/21 01:37:59;;;;;;;5.50;3.80;;;;;;;16.00;100.00;98621.50;5103066;28;20214;-72
2022/05/21 01:40:27;;;;;;;4.20;3.80;;;;;;;15.94;100.00;98629.19;5106231;28;20570;-72
2022/05/21 01:45:35;;;;;;;3.53;3.27;;;;;;;15.82;100.00;98632.84;5104178;28;20233;-72
2022/05/21 01:48:02;;;;;;;3.73;3.33;;;;;;;15.70;100.00;98645.34;5111357;28;20206;-72
2022/05/21 01:50:29;;;;;;;4.70;4.30;;;;;;;15.58;100.00;98642.84;5109919;28;20213;-72
2022/05/21 01:52:55;;;;;;;4.13;3.73;;;;;;;15.43;100.00;98642.28;5108585;28;20237;-72
2022/05/21 01:55:22;;;;;;;5.03;4.23;;;;;;;15.42;100.00;98650.38;5103623;28;20695;-73
2022/05/21 01:57:50;;;;;;;4.27;3.60;;;;;;;15.38;100.00;98654.25;5111019;28;20671;-73
2022/05/21 02:00:18;;;;;;;5.13;4.03;;;;;;;15.26;100.00;98660.50;5111291;28;20565;-73
2022/05/21 02:02:44;;;;;;;4.63;3.73;;;;;;;15.27;100.00;98667.56;5108395;28;20217;-72
2022/05/21 02:05:11;;;;;;;4.10;3.70;;;;;;;15.21;100.00;98662.72;5110644;28;20683;-73
2022/05/21 02:07:37;;;;;;;4.87;3.90;;;;;;;15.20;100.00;98663.66;5111103;28;20233;-72
2022/05/21 02:10:05;;;;;;;5.80;4.13;;;;;;;15.07;100.00;98678.91;5110851;28;20217;-72
2022/05/21 02:12:32;;;;;;;4.77;3.40;;;;;;;15.06;100.00;98680.75;5108971;28;20218;-73
2022/05/21 02:15:00;;;;;;;7.33;3.90;;;;;;;14.99;100.00;98686.66;5110064;28;20214;-73
2022/05/21 02:17:26;;;;;;;4.67;3.90;;;;;;;14.92;100.00;98683.63;5100960;28;20214;-72
2022/05/21 02:19:53;;;;;;;3.90;3.60;;;;;;;14.90;100.00;98695.38;5105902;28;20210;-72
2022/05/21 02:22:19;;;;;;;6.07;4.00;;;;;;;14.80;100.00;98686.41;5105806;28;20206;-72
2022/05/21 02:24:46;;;;;;;4.47;3.93;;;;;;;14.77;100.00;98702.59;5103113;28;20219;-73
2022/05/21 02:27:14;;;;;;;4.40;4.00;;;;;;;14.67;100.00;98704.28;5102059;28;20237;-72
2022/05/21 02:29:41;;;;;;;4.83;4.10;;;;;;;14.63;100.00;98703.69;5103330;28;20220;-72
2022/05/21 02:32:10;;;;;;;4.40;4.00;;;;;;;14.55;100.00;98718.53;5109574;28;20580;-72
2022/05/21 02:34:37;;;;;;;4.37;3.87;;;;;;;14.55;100.00;98715.88;5110297;28;20214;-72
2022/05/21 02:39:48;;;;;;;5.70;4.23;;;;;;;14.46;100.00;98719.19;5101995;28;20213;-73
2022/05/21 02:44:55;;;;;;;4.93;4.53;;;;;;;14.36;100.00;98712.91;5101032;28;20330;-73
2022/05/21 02:47:25;;;;;;;5.33;4.83;;;;;;;14.36;100.00;98716.38;5105677;28;20246;-74
2022/05/21 02:49:51;;;;;;;5.43;4.70;;;;;;;14.35;100.00;98719.19;5105428;28;20206;-73
2022/05/21 02:52:18;;;;;;;5.40;4.90;;;;;;;14.30;100.00;98718.69;5102726;28;20220;-73
2022/05/21 02:54:44;;;;;;;5.70;5.03;;;;;;;14.27;100.00;98727.72;5101676;28;20210;-73
2022/05/21 02:57:11;;;;;;;4.97;4.47;;;;;;;14.20;100.00;98730.94;5105191;28;20690;-73
2022/05/21 02:59:39;;;;;;;6.57;4.77;;;;;;;14.14;100.00;98731.38;5105683;28;20594;-73
2022/05/21 03:02:06;;;;;;;5.03;4.53;;;;;;;14.10;100.00;98729.88;5102901;28;20220;-73
2022/05/21 03:04:34;;;;;;;6.33;5.00;;;;;;;13.99;100.00;98727.19;5101810;28;20214;-72
2022/05/21 03:07:00;;;;;;;4.60;4.20;;;;;;;13.98;100.00;98733.44;5105282;28;20260;-73
2022/05/21 03:12:11;;;;;;;5.73;5.13;;;;;;;13.89;100.00;98731.47;5103912;28;20216;-73
2022/05/21 03:14:38;;;;;;;6.60;5.43;;;;;;;13.90;100.00;98735.84;5110553;28;20224;-73
2022/05/21 03:17:06;;;;;;;6.80;5.60;;;;;;;13.81;100.00;98733.84;5110507;28;20209;-72
2022/05/21 03:19:35;;;;;;;6.20;5.30;;;;;;;13.76;100.00;98736.00;5107664;28;20214;-72
2022/05/21 03:22:02;;;;;;;6.90;6.27;;;;;;;13.74;100.00;98740.59;5110317;28;20223;-73
2022/05/21 03:24:29;;;;;;;8.50;6.87;;;;;;;13.69;100.00;98745.38;5110160;28;20213;-73
2022/05/21 03:26:55;;;;;;;8.33;7.03;;;;;;;13.62;100.00;98741.47;5110027;28;20711;-72
2022/05/21 03:29:22;;;;;;;7.17;6.40;;;;;;;13.59;100.00;98747.84;5103400;28;20219;-72
2022/05/21 03:31:48;;;;;;;6.67;6.07;;;;;;;13.59;100.00;98752.28;5106932;28;20213;-72
2022/05/21 03:34:15;;;;;;;7.57;6.87;;;;;;;13.58;100.00;98745.28;5105319;28;20210;-72
2022/05/21 03:36:43;;;;;;;7.63;6.83;;;;;;;13.59;100.00;98749.63;5101576;28;20215;-72
2022/05/21 03:39:09;;;;;;;6.63;6.00;;;;;;;13.52;100.00;98754.53;5105573;28;20218;-72
2022/05/21 03:41:36;;;;;;;6.90;6.23;;;;;;;13.57;100.00;98751.56;5106670;28;20210;-73
2022/05/21 03:44:04;;;;;;;6.70;6.10;;;;;;;13.50;100.00;98753.78;5105982;28;20324;-72
2022/05/21 03:46:30;;;;;;;7.80;7.10;;;;;;;13.46;100.00;98754.94;5102511;28;20683;-72
2022/05/21 03:48:57;;;;;;;9.60;7.43;;;;;;;13.48;100.00;98754.84;5105158;28;20225;-72
2022/05/21 03:51:23;;;;;;;8.10;6.97;;;;;;;13.47;100.00;98754.03;5102850;28;20225;-72
2022/05/21 03:53:51;;;;;;;8.67;7.47;;;;;;;13.40;100.00;98759.88;5113592;28;20227;-72
2022/05/21 03:56:18;;;;;;;8.00;7.20;;;;;;;13.37;100.00;98760.06;5113826;28;20223;-72
2022/05/21 03:58:44;;;;;;;7.77;6.97;;;;;;;13.34;100.00;98768.25;5111261;28;20693;-72
2022/05/21 04:01:10;;;;;;;8.00;7.17;;;;;;;13.37;100.00;98771.56;5111640;28;20220;-72
2022/05/21 04:03:37;;;;;;;7.70;7.00;;;;;;;13.37;100.00;98773.34;5113284;28;20218;-72
2022/05/21 04:06:03;;;;;;;7.83;7.03;;;;;;;13.38;100.00;98772.41;5108355;28;20224;-72
2022/05/21 04:08:30;;;;;;;8.53;7.73;;;;;;;13.39;100.00;98774.09;5108566;28;20244;-74
2022/05/21 04:10:58;;;;;;;9.03;7.37;;;;;;;13.37;100.00;98776.00;5105762;28;20582;-74
2022/05/21 04:13:25;;;;;;;8.53;7.63;;;;;;;13.36;100.00;98775.16;5104839;28;20221;-73
2022/05/21 04:15:52;;;;;;;9.17;8.17;;;;;;;13.38;100.00;98772.41;5108095;28;20210;-74
2022/05/21 04:18:19;;;;;;;9.17;8.00;;;;;;;13.41;100.00;98773.03;5108052;28;20682;-73
2022/05/21 04:20:46;;;;;;;8.70;7.80;;;;;;;13.46;100.00;98770.88;5105566;28;20214;-74
2022/05/21 04:23:12;;;;;;;9.30;7.50;;;;;;;13.47;100.00;98766.44;5104541;28;20581;-74
2022/05/21 04:25:39;;;;;;;8.83;7.40;;;;;;;13.51;100.00;98767.94;5107676;28;20217;-72
2022/05/21 04:28:07;;;;;;;8.33;7.53;;;;;;;13.52;100.00;98769.63;5105519;28;20258;-72
2022/05/21 04:30:35;;;;;;;9.33;7.57;;;;;;;13.59;100.00;98770.88;5104186;28;20214;-72
2022/05/21 04:33:02;;;;;;;8.37;6.93;;;;;;;13.59;100.00;98776.19;5113124;28;20210;-72
2022/05/21 04:36:17;;;;;;;7.30;6.57;;;;;;;13.67;100.00;98773.81;5112823;28;20339;-72
2022/05/21 04:38:17;;;;;;;9.30;6.67;;;;;;;13.66;100.00;98780.09;5109688;28;20260;-72
2022/05/21 04:40:43;;;;;;;6.33;5.77;;;;;;;13.81;100.00;98776.38;5112744;28;20211;-72
2022/05/21 04:43:12;;;;;;;7.50;6.80;;;;;;;14.04;100.00;98778.19;5112514;28;20244;-72
2022/05/21 04:45:38;;;;;;;6.93;6.00;;;;;;;14.07;100.00;98788.63;5107548;28;20230;-72
2022/05/21 04:48:06;;;;;;;7.10;6.40;;;;;;;14.03;100.00;98781.81;5108634;28;20252;-72
2022/05/21 04:50:35;;;;;;;5.90;5.30;;;;;;;14.06;100.00;98781.59;5108805;28;20290;-72
2022/05/21 04:53:01;;;;;;;6.63;5.53;;;;;;;14.06;100.00;98781.59;5105501;28;20209;-73
2022/05/21 04:55:28;;;;;;;5.83;5.17;;;;;;;14.14;100.00;98789.84;5105408;28;20209;-72
2022/05/21 04:57:54;;;;;;;5.90;5.30;;;;;;;14.23;100.00;98783.91;5108742;28;20223;-72
2022/05/21 05:00:23;;;;;;;6.10;5.00;;;;;;;14.26;100.00;98778.34;5108654;28;20210;-72
2022/05/21 05:02:49;;;;;;;6.77;5.03;;;;;;;14.40;100.00;98786.16;5106746;28;20576;-72
2022/05/21 05:05:16;;;;;;;6.00;5.17;;;;;;;14.45;100.00;98784.00;5105024;28;20210;-72
2022/05/21 05:07:42;;;;;;;6.20;5.60;;;;;;;14.52;100.00;98782.59;5108067;28;20241;-72
2022/05/21 05:10:10;;;;;;;5.97;5.37;;;;;;;14.66;100.00;98788.56;5108775;28;20225;-73
2022/05/21 05:12:37;;;;;;;5.73;4.97;;;;;;;15.19;100.00;98787.13;5107129;28;20213;-72
2022/05/21 05:15:04;;;;;;;7.43;5.00;;;;;;;16.16;94.13;98789.94;5104649;28;20210;-72
2022/05/21 05:17:32;;;;;;;5.70;5.10;;;;;;;17.13;87.63;98787.00;5107540;28;20210;-72
2022/05/21 05:20:00;;;;;;;5.67;5.07;;;;;;;18.00;80.89;98787.31;5106861;28;20213;-72
2022/05/21 05:22:27;;;;;;;4.93;4.53;;;;;;;18.80;75.81;98790.69;5107306;28;20233;-73
2022/05/21 05:24:54;;;;;;;4.53;4.13;;;;;;;19.42;71.68;98788.38;5104427;28;20714;-73
2022/05/21 05:27:20;;;;;;;4.43;4.03;;;;;;;19.91;69.29;98780.88;5107656;28;20236;-73
2022/05/21 05:29:47;;;;;;;5.33;4.60;;;;;;;20.31;65.74;98784.06;5099413;28;20626;-72
2022/05/21 05:32:14;;;;;;;4.40;4.00;;;;;;;20.72;63.94;98778.13;5104067;28;20223;-72
2022/05/21 05:34:42;;;;;;;4.30;3.90;;;;;;;21.12;62.14;98788.41;5107198;28;20210;-73
2022/05/21 05:37:09;;;;;;;4.27;3.73;;;;;;;21.50;60.53;98786.19;5107081;28;20214;-73
2022/05/21 05:39:35;;;;;;;4.90;3.80;;;;;;;21.81;58.59;98789.22;5104154;28;20582;-74
2022/05/21 05:42:03;;;;;;;4.80;3.70;;;;;;;21.63;55.84;98789.28;5111654;28;20217;-73
2022/05/21 05:44:31;;;;;;;4.37;3.57;;;;;;;21.66;56.67;98786.28;5109861;28;20244;-73
2022/05/21 05:46:57;;;;;;;5.63;3.23;;;;;;;22.02;55.94;98785.16;5108806;28;20214;-73
2022/05/21 05:49:24;;;;;;;4.13;3.57;;;;;;;22.42;54.62;98779.03;5111790;28;20216;-73
2022/05/21 05:51:51;;;;;;;3.60;3.30;;;;;;;22.43;53.15;98796.97;5111137;28;20290;-73
2022/05/21 05:54:18;;;;;;;4.30;3.90;;;;;;;22.30;52.41;98794.69;5111404;28;20217;-73
2022/05/21 05:56:45;;;;;;;4.00;3.60;;;;;;;22.19;53.02;98794.97;5109156;28;20232;-73
2022/05/21 06:02:58;;;;;;;5.70;3.70;;;;;;;22.68;51.79;98790.63;5111124;28;20213;-72
2022/05/21 06:04:42;;;;;;;3.60;3.30;;;;;;;22.92;51.54;98799.56;5108047;28;20295;-73
2022/05/21 06:07:14;;;;;;;3.37;2.70;;;;;;;23.38;51.39;98801.63;5111124;28;20218;-73
2022/05/21 06:09:41;;;;;;;4.13;2.90;;;;;;;23.71;50.02;98800.56;5110760;28;20217;-73
2022/05/21 06:12:08;;;;;;;3.33;3.00;;;;;;;23.89;48.48;98806.63;5109545;28;20230;-73
2022/05/21 06:14:35;;;;;;;4.00;2.73;;;;;;;24.01;47.24;98805.22;5107508;28;20224;-73
2022/05/21 06:17:02;;;;;;;3.67;2.50;;;;;;;24.15;46.45;98803.66;5111096;28;20588;-73
2022/05/21 06:19:28;;;;;;;2.93;2.30;;;;;;;24.24;45.89;98811.56;5111080;28;20214;-73
2022/05/21 06:21:57;;;;;;;2.60;2.37;;;;;;;24.40;45.25;98816.91;5110842;28;20255;-73
2022/05/21 06:24:25;;;;;;;2.70;2.43;;;;;;;23.95;44.79;98822.13;5108433;28;20218;-73
2022/05/21 06:26:51;;;;;;;3.87;2.10;;;;;;;24.04;45.00;98831.06;5110891;28;20228;-72
2022/05/21 06:29:18;;;;;;;2.47;2.27;;;;;;;23.91;44.48;98826.22;5103569;28;20238;-73
2022/05/21 06:31:44;;;;;;;2.40;2.20;;;;;;;23.82;45.64;98821.81;5106041;28;20217;-73
2022/05/21 06:34:11;;;;;;;3.57;1.87;;;;;;;24.07;44.36;98819.91;5105804;28;20214;-73
2022/05/21 06:36:37;;;;;;;1.83;1.73;;;;;;;;;;5101449;28;20210;-73
2022/05/21 06:39:04;;;;;;;2.20;1.77;;;;;;;24.47;43.01;98820.59;5110825;28;20214;-73
2022/05/21 06:41:32;;;;;;;3.20;1.60;;;;;;;24.47;42.73;98823.28;5110706;28;20213;-73
2022/05/21 06:43:58;;;;;;;2.00;1.80;;;;;;;24.55;42.86;98820.53;5108290;28;20241;-73
2022/05/21 06:46:25;;;;;;;1.97;1.70;;;;;;;24.57;42.78;98818.53;5110488;28;20210;-74
2022/05/21 06:48:51;;;;;;;3.13;1.50;;;;;;;24.52;43.29;98815.50;5110547;28;20238;-74
2022/05/21 06:51:18;;;;;;;2.83;1.70;;;;;;;24.27;44.02;98824.72;5110688;28;20214;-74
2022/05/21 06:53:44;;;;;;;2.13;1.70;;;;;;;23.69;45.67;98817.94;5108783;28;20218;-74
2022/05/21 06:56:14;;;;;;;1.80;1.57;;;;;;;22.46;47.59;98823.56;5109593;28;20217;-73
2022/05/21 06:58:43;;;;;;;4.00;1.70;;;;;;;21.23;50.39;98829.34;5110266;28;20213;-73
2022/05/21 07:01:10;;;;;;;1.70;1.40;;;;;;;20.53;52.45;98834.66;5110219;28;20687;-73
2022/05/21 07:03:37;;;;;;;1.40;1.30;;;;;;;20.21;55.55;98831.63;5106784;28;20301;-74
2022/05/21 07:08:48;;;;;;;1.73;1.60;;;;;;;19.89;56.75;98836.53;5110127;28;20240;-74
2022/05/21 07:11:14;;;;;;;3.23;1.90;;;;;;;19.79;57.80;98830.34;5110219;28;20217;-74
2022/05/21 07:13:43;;;;;;;1.53;1.43;;;;;;;19.52;56.88;98830.25;5106366;28;20211;-73
2022/05/21 07:16:10;;;;;;;3.07;1.90;;;;;;;19.20;56.74;98835.13;5101762;28;20260;-73
2022/05/21 07:18:37;;;;;;;4.00;1.50;;;;;;;18.86;59.52;98843.72;5102677;28;20211;-73
2022/05/21 07:21:03;;;;;;;1.93;1.30;;;;;;;18.81;61.22;98852.16;5104479;28;20221;-73
2022/05/21 07:23:30;;;;;;;1.87;1.20;;;;;;;18.86;60.71;98839.22;5103093;28;20619;-73
2022/05/21 07:25:56;;;;;;;2.93;1.37;;;;;;;18.93;62.02;98842.16;5100739;28;20211;-73
2022/05/21 07:28:24;;;;;;;1.70;1.20;;;;;;;18.92;61.26;98838.66;5108118;28;20251;-73
2022/05/21 07:30:52;;;;;;;1.50;1.00;;;;;;;19.00;59.94;98820.03;5101061;28;20621;-73
2022/05/21 07:33:20;;;;;;;2.00;1.00;;;;;;;19.01;54.67;98827.06;5108932;28;20216;-73
2022/05/21 07:35:47;;;;;;;1.37;1.00;;;;;;;18.78;55.28;98830.19;5109266;28;20217;-74
2022/05/21 07:38:15;;;;;;;1.60;1.03;;;;;;;18.56;55.43;98831.28;5107226;28;20224;-74
2022/05/21 07:40:43;;;;;;;2.33;0.90;;;;;;;18.40;55.78;98827.47;5105463;28;20211;-73
2022/05/21 07:43:11;;;;;;;1.37;0.90;;;;;;;18.21;59.04;98825.53;5106514;28;20238;-73
2022/05/21 07:45:39;;;;;;;2.97;1.00;;;;;;;18.28;59.05;98824.00;5109345;28;20221;-73
2022/05/21 07:48:09;;;;;;;1.27;0.93;;;;;;;18.34;59.70;98820.81;5106473;28;20722;-73
2022/05/21 07:50:36;;;;;;;1.03;0.80;;;;;;;18.41;59.36;98821.13;5105798;28;20215;-74
2022/05/21 07:53:03;;;;;;;2.27;0.90;;;;;;;18.56;57.00;98825.94;5109068;28;20292;-72
2022/05/21 07:55:30;;;;;;;1.27;0.90;;;;;;;18.50;54.75;98815.78;5103564;28;20305;-74
2022/05/21 07:57:56;;;;;;;1.03;1.00;;;;;;;18.42;55.37;98828.16;5105425;28;20222;-73
2022/05/21 08:00:23;;;;;;;2.63;1.00;;;;;;;18.35;57.16;98833.19;5103814;28;20222;-74
2022/05/21 08:02:49;;;;;;;2.30;1.10;;;;;;;18.31;56.76;98828.25;5107299;28;20216;-74
2022/05/21 08:05:17;;;;;;;1.27;0.70;;;;;;;18.21;57.51;98833.56;5106310;28;20221;-72
2022/05/21 08:07:49;;;;;;;2.13;0.90;;;;;;;18.34;58.72;98831.50;5109167;28;20671;-72
2022/05/21 08:10:15;;;;;;;1.63;0.90;;;;;;;18.45;58.57;98834.06;5111973;28;20683;-72
2022/05/21 08:12:42;;;;;;;2.60;0.87;;;;;;;18.59;57.65;98827.50;5112178;28;20213;-72
2022/05/21 08:15:10;;;;;;;1.37;1.00;;;;;;;18.66;57.75;98818.72;5109294;28;20752;-72
2022/05/21 08:17:37;;;;;;;1.30;0.70;;;;;;;18.75;58.48;98825.94;5110558;28;20213;-73
2022/05/21 08:20:04;;;;;;;1.53;0.70;;;;;;;18.76;55.21;98824.09;5112157;28;20221;-72
2022/05/21 08:28:00;;;;;;;1.70;1.03;;;;;;;18.77;57.24;98828.50;5098779;28;20273;-72
2022/05/21 08:30:27;;;;;;;1.03;1.00;;;;;;;18.88;58.57;98826.50;5107665;28;20224;-73
2022/05/21 08:32:59;;;;;;;1.93;1.07;;;;;;;19.06;55.36;98818.59;5111784;28;20227;-72
2022/05/21 08:35:26;;;;;;;2.80;1.10;;;;;;;19.08;56.39;98812.13;5111864;28;20214;-72
2022/05/21 08:37:53;;;;;;;2.07;0.97;;;;;;;18.89;55.36;98812.13;5112073;28;20210;-73
2022/05/21 08:40:21;;;;;;;1.37;1.07;;;;;;;18.75;56.23;98814.38;5112408;28;20214;-74
2022/05/21 08:42:54;;;;;;;1.43;0.80;;;;;;;18.63;57.03;98815.50;5110797;28;20671;-72
2022/05/21 08:45:24;;;;;;;1.63;1.00;;;;;;;18.79;56.90;98813.97;5100707;28;20215;-71
2022/05/21 08:47:59;;;;;;;1.43;0.90;;;;;;;18.96;57.30;98812.41;5112145;28;20213;-71
2022/05/21 08:50:32;;;;;;;1.70;1.00;;;;;;;18.94;55.86;98817.06;5110146;28;20215;-70
2022/05/21 08:53:04;;;;;;;1.43;0.83;;;;;;;18.97;57.86;98804.22;5109436;28;20642;-68
2022/05/21 08:55:32;;;;;;;1.47;1.00;;;;;;;19.11;57.93;98819.88;5111327;28;20225;-68
2022/05/21 08:58:02;;;;;;;1.37;1.10;;;;;;;19.27;56.71;98817.47;5110957;28;20742;-68
2022/05/21 09:00:33;;;;;;;1.30;1.10;;;;;;;19.24;56.12;98812.41;5108053;28;20222;-68
2022/05/21 09:03:00;;;;;;;1.70;0.93;;;;;;;19.21;57.29;98815.38;5111191;28;20248;-68
2022/05/21 09:05:27;;;;;;;1.30;0.93;;;;;;;19.34;57.54;98807.91;5110797;28;20556;-70
2022/05/21 09:08:04;;;;;;;1.87;1.00;;;;;;;19.34;56.60;98812.41;5110735;28;20229;-70
2022/05/21 09:10:48;;;;;;;2.53;1.00;;;;;;;19.24;55.83;98799.00;5099994;28;20294;-68
2022/05/21 09:13:20;;;;;;;2.20;0.80;;;;;;;19.25;58.71;98798.03;5098144;28;20213;-70
2022/05/21 09:18:34;;;;;;;2.93;1.10;;;;;;;19.55;56.38;98803.19;5108724;28;20221;-70
2022/05/21 09:21:02;;;;;;;1.23;1.00;;;;;;;19.47;55.73;98792.34;5110749;28;20220;-69
2022/05/21 09:23:49;;;;;;;2.50;1.00;;;;;;;19.71;54.22;98794.50;5110497;28;20668;-69
2022/05/21 09:26:17;;;;;;;1.37;1.07;;;;;;;19.66;56.57;98792.28;5099701;28;20214;-71
2022/05/21 09:28:43;;;;;;;2.57;1.20;;;;;;;19.53;55.62;98786.41;5095446;28;20235;-71
2022/05/21 09:31:11;;;;;;;2.40;1.10;;;;;;;19.56;55.35;98786.09;5104447;28;20218;-69
2022/05/21 09:33:40;;;;;;;1.23;1.00;;;;;;;19.56;55.43;98788.78;5111270;28;20210;-70
2022/05/21 09:36:07;;;;;;;2.90;1.10;;;;;;;19.65;56.80;98790.59;5109201;28;20309;-69
2022/05/21 09:38:38;;;;;;;1.60;0.93;;;;;;;19.78;55.67;98790.25;5111278;28;20583;-68
2022/05/21 09:41:11;;;;;;;2.40;1.00;;;;;;;19.74;55.21;98786.19;5111255;28;20638;-68
2022/05/21 09:46:26;;;;;;;1.77;0.80;;;;;;;19.65;57.90;98782.53;5100145;28;20213;-70
2022/05/21 09:48:55;;;;;;;1.60;1.00;;;;;;;19.85;58.38;98775.25;5110302;28;20237;-68
2022/05/21 09:51:27;;;;;;;2.40;1.07;;;;;;;19.99;54.03;98772.91;5110829;28;20206;-69
2022/05/21 09:53:54;;;;;;;2.97;0.90;;;;;;;19.94;54.07;98769.81;5109085;28;20218;-68
2022/05/21 09:56:24;;;;;;;2.37;1.10;;;;;;;19.97;54.22;98768.69;5110986;28;20407;-68
2022/05/21 09:58:54;;;;;;;1.07;0.80;;;;;;;20.00;56.06;98769.22;5110973;28;20589;-68
2022/05/21 10:01:36;;;;;;;2.20;0.80;;;;;;;19.88;52.42;98769.59;5110710;28;20259;-69
2022/05/21 10:04:12;;;;;;;1.33;0.90;;;;;;;19.83;53.98;98777.25;5099415;28;20272;-69
2022/05/21 10:06:43;;;;;;;2.80;1.00;;;;;;;19.91;55.10;98772.81;5110718;28;20214;-70
2022/05/21 10:12:07;;;;;;;1.77;0.97;;;;;;;20.10;53.22;98774.56;5099807;28;20221;-69
2022/05/21 10:14:38;;;;;;;1.93;1.00;;;;;;;20.06;53.71;98774.03;5110378;28;20220;-71
2022/05/21 10:17:08;;;;;;;3.23;1.03;;;;;;;20.12;52.10;98762.69;5110169;28;20229;-69
2022/05/21 10:19:45;;;;;;;2.17;0.90;;;;;;;20.14;52.84;98760.72;5109347;28;20221;-69
2022/05/21 10:22:19;;;;;;;1.43;0.70;;;;;;;20.25;53.94;98765.88;5110355;28;20241;-69
2022/05/21 10:24:58;;;;;;;1.80;1.00;;;;;;;20.26;52.16;98764.03;5110493;28;20220;-69
2022/05/21 10:27:52;;;;;;;1.47;0.90;;;;;;;20.25;53.47;98763.19;5108059;28;20220;-70
2022/05/21 10:30:26;;;;;;;2.37;0.90;;;;;;;20.43;52.67;98761.38;5104952;28;20240;-69
2022/05/21 10:33:19;;;;;;;1.90;0.87;;;;;;;20.38;51.55;98760.16;5109894;28;20214;-69
2022/05/21 10:36:01;;;;;;;0.80;0.77;;;;;;;20.21;52.57;98750.22;5099055;28;20219;-69
2022/05/21 10:38:40;;;;;;;0.77;0.70;;;;;;;20.22;53.20;98758.13;5110236;28;20221;-69
2022/05/21 10:41:15;;;;;;;0.90;0.80;;;;;;;20.45;52.55;98758.53;5108238;28;20210;-69
2022/05/21 10:44:02;;;;;;;1.07;0.87;;;;;;;20.27;51.11;98739.75;5110158;28;20248;-69
2022/05/21 10:46:41;;;;;;;1.07;0.80;;;;;;;20.41;51.18;98744.56;5110249;28;20216;-68
2022/05/21 10:49:36;;;;;;;1.53;0.90;;;;;;;20.39;51.38;98722.41;5108335;28;20273;-69
2022/05/21 10:52:12;;;;;;;1.73;0.80;;;;;;;20.75;51.30;98734.84;5108945;28;20221;-69
2022/05/21 10:55:01;;;;;;;1.57;0.80;;;;;;;20.85;50.25;98740.94;5098250;28;20210;-69
2022/05/21 10:57:40;;;;;;;1.63;1.10;;;;;;;20.88;50.95;98732.63;5101587;28;20240;-70
2022/05/21 11:00:11;;;;;;;2.23;1.10;;;;;;;21.03;48.46;98716.78;5109997;28;20209;-68
2022/05/21 11:03:11;;;;;;;1.27;1.00;;;;;;;20.99;49.49;98716.25;5110742;28;20217;-69
2022/05/21 11:05:56;;;;;;;1.63;0.80;;;;;;;21.12;49.23;98716.69;5114248;28;20209;-69
2022/05/21 11:08:29;;;;;;;2.50;0.97;;;;;;;21.17;47.37;98709.00;5101898;28;20680;-71
2022/05/21 11:11:02;;;;;;;1.03;0.80;;;;;;;21.23;48.58;98712.88;5107437;28;20229;-70
2022/05/21 11:13:34;;;;;;;2.17;1.00;;;;;;;21.16;48.26;98712.66;5097703;28;20618;-70
2022/05/21 11:16:10;;;;;;;1.43;0.70;;;;;;;21.27;47.90;98698.97;5102086;28;20217;-70
2022/05/21 11:18:40;;;;;;;1.37;0.90;;;;;;;21.28;48.48;98711.41;5111063;28;20696;-69
2022/05/21 11:21:13;;;;;;;2.10;0.73;;;;;;;21.45;48.60;98707.81;5110775;28;20218;-69
2022/05/21 11:23:50;;;;;;;3.50;1.10;;;;;;;21.70;46.99;98712.31;5096370;28;20211;-71
2022/05/21 11:26:26;;;;;;;1.30;0.90;;;;;;;21.67;46.63;98706.44;5098125;28;20670;-69
2022/05/21 11:28:55;;;;;;;1.30;0.80;;;;;;;21.66;45.71;98707.41;5099837;28;20233;-68
2022/05/21 11:39:43;;;;;;;0.80;0.70;;;;;;;21.44;45.98;98702.56;5112331;28;20213;-70
2022/05/21 11:42:16;;;;;;;1.70;0.80;;;;;;;21.62;45.33;98706.03;5108751;28;20224;-68
2022/05/21 11:45:02;;;;;;;1.97;0.90;;;;;;;21.56;46.61;98699.47;5112542;28;20328;-71
2022/05/21 11:47:56;;;;;;;1.13;0.70;;;;;;;21.66;45.16;98694.81;5112024;28;20214;-73
2022/05/21 11:50:28;;;;;;;1.30;1.00;;;;;;;21.68;44.93;98706.28;5112452;28;20249;-69
2022/05/21 11:53:00;;;;;;;1.57;1.20;;;;;;;21.45;45.98;98699.72;5113500;28;20222;-70
2022/05/21 11:55:31;;;;;;;1.27;0.80;;;;;;;21.53;46.51;98696.25;5112548;28;20222;-69
2022/05/21 11:57:59;;;;;;;4.07;0.97;;;;;;;21.43;47.93;98699.06;5112983;28;20245;-68
2022/05/21 12:00:43;;;;;;;1.23;0.90;;;;;;;21.55;47.50;98692.41;5113864;28;20602;-69
2022/05/21 12:03:23;;;;;;;3.87;1.17;;;;;;;21.77;46.34;98689.16;5110509;28;20214;-69
2022/05/21 12:06:16;;;;;;;1.10;0.90;;;;;;;22.00;46.61;98684.03;5113192;28;20221;-69
2022/05/21 12:08:48;;;;;;;1.37;0.90;;;;;;;22.00;45.05;98684.84;5114001;28;20229;-69
2022/05/21 12:11:45;;;;;;;2.43;0.90;;;;;;;22.03;45.00;98687.22;5112478;28;20218;-69
2022/05/21 12:14:21;;;;;;;1.67;0.97;;;;;;;22.05;43.44;98681.66;5089386;28;20221;-69
2022/05/21 12:16:52;;;;;;;2.60;0.90;;;;;;;22.07;43.69;98688.56;5112431;28;20218;-68
2022/05/21 12:20:06;;;;;;;1.53;0.90;;;;;;;22.10;45.38;98677.50;5111637;28;20214;-69